Time;durP1;ratioP1;P1;durP2;ratioP2;P2;SDS_P1;SDS_P2;PMS_P1;PMS_P2;Temp;Humidity;BMP_temperature;BMP_pressure;BME280_temperature;BME280_humidity;BME280_pressure;Samples;Min_cycle;Max_cycle;Signal;HPM_P1;HPM_P2
2023/07/15 00:01:20;;;;;;;;;;;26.50;57.20;;;;;;5094209;28;20334;-55
2023/07/15 00:03:49;;;;;;;;;;;26.50;57.20;;;;;;5094153;28;19928;-55
2023/07/15 00:06:16;;;;;;;;;;;26.50;57.20;;;;;;5094050;28;19924;-56
2023/07/15 00:08:44;;;;;;;;;;;26.40;57.10;;;;;;5094469;28;19970;-56
2023/07/15 00:11:15;;;;;;;;;;;26.40;57.20;;;;;;5094429;28;19928;-54
2023/07/15 00:13:43;;;;;;;;;;;26.40;57.20;;;;;;5094043;28;19970;-53
2023/07/15 00:16:10;;;;;;;;;;;26.40;57.20;;;;;;5094233;28;19924;-54
2023/07/15 00:18:37;;;;;;;;;;;26.40;57.20;;;;;;5093966;28;20288;-55
2023/07/15 00:21:13;;;;;;;;;;;26.40;57.30;;;;;;5093774;28;20380;-55
2023/07/15 00:23:40;;;;;;;;;;;26.40;57.30;;;;;;5094119;28;19924;-53
2023/07/15 00:26:07;;;;;;;;;;;26.40;57.40;;;;;;5094249;28;20002;-54
2023/07/15 00:28:35;;;;;;;;;;;26.40;57.30;;;;;;5094253;28;19924;-53
2023/07/15 00:31:07;;;;;;;;;;;26.40;57.30;;;;;;5093657;28;19975;-54
2023/07/15 00:33:34;;;;;;;;;;;26.40;57.30;;;;;;5093715;28;19924;-53
2023/07/15 00:36:01;;;;;;;;;;;26.40;57.30;;;;;;5094099;28;19955;-54
2023/07/15 00:38:28;;;;;;;;;;;26.40;57.30;;;;;;5093754;28;19924;-57
2023/07/15 00:40:55;;;;;;;;;;;26.40;57.30;;;;;;5093728;28;19924;-55
2023/07/15 00:43:42;;;;;;;;;;;26.40;57.30;;;;;;5093594;28;19977;-55
2023/07/15 00:46:26;;;;;;;;;;;26.40;57.30;;;;;;5093512;28;20006;-55
2023/07/15 00:48:56;;;;;;;;;;;26.40;57.40;;;;;;5093745;28;20395;-53
2023/07/15 00:51:25;;;;;;;;;;;26.40;57.40;;;;;;5092970;28;19969;-54
2023/07/15 00:53:53;;;;;;;;;;;26.40;57.40;;;;;;5093657;28;20418;-54
2023/07/15 00:56:21;;;;;;;;;;;26.40;57.40;;;;;;5093850;28;19959;-54
2023/07/15 00:58:49;;;;;;;;;;;26.40;57.40;;;;;;5093900;28;19924;-53
2023/07/15 01:01:15;;;;;;;;;;;26.30;57.30;;;;;;5093923;28;19986;-54
2023/07/15 01:03:45;;;;;;;;;;;26.40;57.40;;;;;;5093735;28;20013;-55
2023/07/15 01:06:13;;;;;;;;;;;26.40;57.30;;;;;;5093355;28;19932;-55
2023/07/15 01:08:40;;;;;;;;;;;26.40;57.30;;;;;;5093480;28;19924;-53
2023/07/15 01:11:09;;;;;;;;;;;26.40;57.30;;;;;;5093576;28;19924;-55
2023/07/15 01:13:36;;;;;;;;;;;26.40;57.30;;;;;;5093634;28;19928;-55
2023/07/15 01:16:04;;;;;;;;;;;26.40;57.30;;;;;;5092451;28;20311;-55
2023/07/15 01:18:31;;;;;;;;;;;26.40;57.30;;;;;;5093322;28;19957;-54
2023/07/15 01:20:59;;;;;;;;;;;26.40;57.30;;;;;;5093480;28;20273;-56
2023/07/15 01:23:27;;;;;;;;;;;26.30;57.20;;;;;;5097320;28;20426;-55
2023/07/15 01:25:58;;;;;;;;;;;26.40;57.20;;;;;;5097683;28;19966;-53
2023/07/15 01:28:24;;;;;;;;;;;26.40;57.30;;;;;;5097156;28;19924;-55
2023/07/15 01:30:51;;;;;;;;;;;26.40;57.20;;;;;;5097551;28;20342;-54
2023/07/15 01:33:18;;;;;;;;;;;26.40;57.20;;;;;;5097327;28;20323;-55
2023/07/15 01:35:47;;;;;;;;;;;26.40;57.30;;;;;;5097018;28;20292;-55
2023/07/15 01:38:14;;;;;;;;;;;26.40;57.30;;;;;;5097381;28;19935;-54
2023/07/15 01:40:42;;;;;;;;;;;26.40;57.30;;;;;;5097056;28;19987;-56
2023/07/15 01:43:13;;;;;;;;;;;26.40;57.30;;;;;;5096894;28;20400;-55
2023/07/15 01:45:40;;;;;;;;;;;26.30;57.20;;;;;;5097164;28;20310;-57
2023/07/15 01:48:10;;;;;;;;;;;26.30;57.30;;;;;;5097148;28;20007;-54
2023/07/15 01:50:37;;;;;;;;;;;26.30;57.30;;;;;;5096909;28;19931;-55
2023/07/15 01:53:04;;;;;;;;;;;26.30;57.30;;;;;;5096716;28;19924;-55
2023/07/15 01:55:31;;;;;;;;;;;26.30;57.30;;;;;;5096573;28;20361;-55
2023/07/15 01:57:58;;;;;;;;;;;26.30;57.30;;;;;;5096469;28;19928;-54
2023/07/15 02:00:27;;;;;;;;;;;26.30;57.40;;;;;;5096982;28;19924;-55
2023/07/15 02:02:54;;;;;;;;;;;26.30;57.30;;;;;;5096832;28;19977;-54
2023/07/15 02:05:21;;;;;;;;;;;26.30;57.30;;;;;;5096644;28;19924;-56
2023/07/15 02:07:48;;;;;;;;;;;26.30;57.40;;;;;;5096550;28;19924;-56
2023/07/15 02:10:15;;;;;;;;;;;26.30;57.30;;;;;;5094771;28;19975;-53
2023/07/15 02:12:42;;;;;;;;;;;26.30;57.30;;;;;;5096717;28;19971;-54
2023/07/15 02:15:09;;;;;;;;;;;26.30;57.40;;;;;;5096735;28;19924;-55
2023/07/15 02:17:36;;;;;;;;;;;26.30;57.40;;;;;;5095567;28;19924;-54
2023/07/15 02:20:07;;;;;;;;;;;26.30;57.40;;;;;;5096200;28;19970;-55
2023/07/15 02:22:34;;;;;;;;;;;26.20;57.30;;;;;;5096277;28;19925;-54
2023/07/15 02:25:01;;;;;;;;;;;26.30;57.40;;;;;;5096124;28;20368;-54
2023/07/15 02:27:30;;;;;;;;;;;26.30;57.40;;;;;;5096087;28;19970;-55
2023/07/15 02:29:57;;;;;;;;;;;26.20;57.30;;;;;;5096381;28;20036;-55
2023/07/15 02:32:39;;;;;;;;;;;26.20;57.40;;;;;;5095360;28;19924;-55
2023/07/15 02:35:11;;;;;;;;;;;26.20;57.30;;;;;;5095606;28;20023;-55
2023/07/15 02:37:39;;;;;;;;;;;26.20;57.40;;;;;;5095870;28;19975;-53
2023/07/15 02:40:10;;;;;;;;;;;26.20;57.40;;;;;;5096287;28;19924;-55
2023/07/15 02:42:37;;;;;;;;;;;26.20;57.40;;;;;;5096146;28;19970;-55
2023/07/15 02:45:07;;;;;;;;;;;26.20;57.40;;;;;;5095696;28;19931;-56
2023/07/15 02:47:34;;;;;;;;;;;26.20;57.40;;;;;;5095025;28;19924;-54
2023/07/15 02:50:04;;;;;;;;;;;26.20;57.40;;;;;;5095267;28;19931;-54
2023/07/15 02:52:32;;;;;;;;;;;26.20;57.40;;;;;;5095927;28;20013;-55
2023/07/15 02:55:00;;;;;;;;;;;26.20;57.40;;;;;;5095390;28;19982;-55
2023/07/15 02:57:27;;;;;;;;;;;26.20;57.40;;;;;;5095652;28;19924;-55
2023/07/15 02:59:55;;;;;;;;;;;26.20;57.40;;;;;;5095542;28;19977;-54
2023/07/15 03:02:23;;;;;;;;;;;26.20;57.40;;;;;;5095434;28;19924;-54
2023/07/15 03:04:50;;;;;;;;;;;26.20;57.40;;;;;;5095618;28;20325;-54
2023/07/15 03:07:18;;;;;;;;;;;26.20;57.40;;;;;;5094537;28;19977;-54
2023/07/15 03:09:45;;;;;;;;;;;26.20;57.40;;;;;;5095356;28;19924;-56
2023/07/15 03:12:12;;;;;;;;;;;26.20;57.30;;;;;;5095250;28;19970;-56
2023/07/15 03:14:41;;;;;;;;;;;26.20;57.30;;;;;;5095232;28;19928;-56
2023/07/15 03:17:12;;;;;;;;;;;26.20;57.30;;;;;;5094778;28;19931;-54
2023/07/15 03:19:39;;;;;;;;;;;26.30;57.30;;;;;;5094372;28;20438;-54
2023/07/15 03:22:06;;;;;;;;;;;26.20;57.20;;;;;;5094960;28;20381;-54
2023/07/15 03:24:34;;;;;;;;;;;26.30;57.30;;;;;;5094108;28;19924;-55
2023/07/15 03:27:02;;;;;;;;;;;26.30;57.30;;;;;;5093876;28;19924;-54
2023/07/15 03:29:29;;;;;;;;;;;26.30;57.20;;;;;;5094458;28;20316;-55
2023/07/15 03:31:56;;;;;;;;;;;26.30;57.20;;;;;;5094845;28;20442;-56
2023/07/15 03:34:24;;;;;;;;;;;26.30;57.10;;;;;;5095040;28;19924;-55
2023/07/15 03:36:53;;;;;;;;;;;26.30;57.10;;;;;;5094378;28;19925;-53
2023/07/15 03:39:21;;;;;;;;;;;26.30;57.10;;;;;;5095113;28;19947;-55
2023/07/15 03:41:48;;;;;;;;;;;26.30;57.10;;;;;;5094676;28;20331;-56
2023/07/15 03:44:15;;;;;;;;;;;26.30;57.10;;;;;;5093943;28;20305;-55
2023/07/15 03:46:42;;;;;;;;;;;26.40;57.10;;;;;;5094154;28;20346;-55
2023/07/15 03:49:10;;;;;;;;;;;26.30;57.00;;;;;;5093686;28;19924;-55
2023/07/15 03:51:37;;;;;;;;;;;26.40;57.10;;;;;;5094409;28;19924;-56
2023/07/15 03:54:05;;;;;;;;;;;26.40;57.00;;;;;;5094456;28;20369;-55
2023/07/15 03:56:33;;;;;;;;;;;26.40;56.90;;;;;;5094634;28;19981;-55
2023/07/15 03:59:00;;;;;;;;;;;26.40;56.90;;;;;;5094781;28;19924;-55
2023/07/15 04:01:27;;;;;;;;;;;26.40;56.90;;;;;;5094329;28;19924;-55
2023/07/15 04:03:54;;;;;;;;;;;26.40;56.90;;;;;;5094250;28;20015;-55
2023/07/15 04:06:21;;;;;;;;;;;26.40;56.80;;;;;;5094051;28;19931;-55
2023/07/15 04:08:49;;;;;;;;;;;26.40;56.80;;;;;;5094249;28;19924;-54
2023/07/15 04:11:17;;;;;;;;;;;26.40;56.80;;;;;;5094161;28;19977;-55
2023/07/15 04:13:44;;;;;;;;;;;26.40;56.80;;;;;;5094451;28;19927;-55
2023/07/15 04:16:12;;;;;;;;;;;26.50;56.80;;;;;;5093551;28;19939;-54
2023/07/15 04:18:40;;;;;;;;;;;26.50;56.80;;;;;;5093489;28;19924;-54
2023/07/15 04:21:07;;;;;;;;;;;26.50;56.70;;;;;;5092420;28;19963;-55
2023/07/15 04:23:34;;;;;;;;;;;26.50;56.70;;;;;;5094080;28;19924;-55
2023/07/15 04:26:02;;;;;;;;;;;26.50;56.70;;;;;;5093301;28;19957;-55
2023/07/15 04:28:29;;;;;;;;;;;26.50;56.70;;;;;;5093842;28;20292;-55
2023/07/15 04:30:56;;;;;;;;;;;26.50;56.60;;;;;;5093129;28;20295;-54
2023/07/15 04:33:23;;;;;;;;;;;26.50;56.50;;;;;;5094204;28;19964;-52
2023/07/15 04:35:50;;;;;;;;;;;26.50;56.50;;;;;;5093708;28;20026;-54
2023/07/15 04:38:20;;;;;;;;;;;26.50;56.60;;;;;;5093162;28;20265;-54
2023/07/15 04:40:47;;;;;;;;;;;26.50;56.70;;;;;;5093912;28;19931;-54
2023/07/15 04:43:14;;;;;;;;;;;26.40;56.80;;;;;;5093068;28;20415;-54
2023/07/15 04:45:41;;;;;;;;;;;26.30;57.10;;;;;;5092522;28;19924;-55
2023/07/15 04:48:08;;;;;;;;;;;26.10;56.50;;;;;;5093722;28;20342;-57
2023/07/15 04:50:36;;;;;;;;;;;25.80;55.50;;;;;;5093960;28;19931;-55
2023/07/15 04:53:03;;;;;;;;;;;25.60;54.60;;;;;;5093965;28;19942;-54
2023/07/15 04:55:30;;;;;;;;;;;25.30;54.30;;;;;;5093614;28;20342;-54
2023/07/15 04:57:56;;;;;;;;;;;25.00;54.50;;;;;;5097515;28;19967;-53
2023/07/15 05:00:25;;;;;;;;;;;24.70;53.60;;;;;;5097300;28;19932;-54
2023/07/15 05:02:52;;;;;;;;;;;24.30;53.40;;;;;;5097878;28;19928;-54
2023/07/15 05:05:19;;;;;;;;;;;24.00;53.60;;;;;;5097900;28;19969;-56
2023/07/15 05:07:48;;;;;;;;;;;23.70;53.60;;;;;;5097508;28;19924;-54
2023/07/15 05:10:24;;;;;;;;;;;23.40;53.80;;;;;;5098046;28;19947;-54
2023/07/15 05:12:51;;;;;;;;;;;23.00;54.20;;;;;;5097583;28;19971;-54
2023/07/15 05:15:18;;;;;;;;;;;22.80;53.40;;;;;;5097568;28;19924;-54
2023/07/15 05:17:45;;;;;;;;;;;22.60;53.50;;;;;;5097337;28;19986;-54
2023/07/15 05:20:18;;;;;;;;;;;22.40;54.20;;;;;;5097388;28;20015;-54
2023/07/15 05:22:45;;;;;;;;;;;22.20;53.90;;;;;;5097185;28;20014;-53
2023/07/15 05:25:15;;;;;;;;;;;22.00;54.80;;;;;;5097568;28;19931;-52
2023/07/15 05:27:42;;;;;;;;;;;21.80;56.20;;;;;;5097599;28;20262;-54
2023/07/15 05:30:09;;;;;;;;;;;21.70;56.00;;;;;;5096725;28;19949;-53
2023/07/15 05:32:36;;;;;;;;;;;21.60;56.60;;;;;;5097169;28;19924;-53
2023/07/15 05:35:04;;;;;;;;;;;21.60;56.30;;;;;;5097413;28;19986;-54
2023/07/15 05:37:31;;;;;;;;;;;21.50;56.40;;;;;;5096514;28;19924;-53
2023/07/15 05:39:58;;;;;;;;;;;21.50;57.30;;;;;;5097146;28;19978;-54
2023/07/15 05:42:25;;;;;;;;;;;21.40;57.80;;;;;;5097028;28;20388;-53
2023/07/15 05:44:51;;;;;;;;;;;21.40;57.90;;;;;;5096565;28;19924;-54
2023/07/15 05:47:18;;;;;;;;;;;21.30;57.80;;;;;;5096361;28;19924;-56
2023/07/15 05:49:47;;;;;;;;;;;21.30;57.80;;;;;;5097027;28;19930;-54
2023/07/15 05:52:14;;;;;;;;;;;21.30;58.20;;;;;;5096216;28;19928;-52
2023/07/15 05:54:41;;;;;;;;;;;21.30;58.20;;;;;;5096549;28;20316;-53
2023/07/15 05:57:08;;;;;;;;;;;21.30;58.30;;;;;;5096765;28;19924;-53
2023/07/15 05:59:35;;;;;;;;;;;21.30;58.40;;;;;;5097136;28;20334;-52
2023/07/15 06:02:02;;;;;;;;;;;21.30;58.90;;;;;;5096549;28;20019;-53
2023/07/15 06:04:29;;;;;;;;;;;21.30;58.90;;;;;;5096947;28;19977;-52
2023/07/15 06:06:56;;;;;;;;;;;21.30;59.00;;;;;;5096255;28;19977;-54
2023/07/15 06:09:23;;;;;;;;;;;21.30;59.10;;;;;;5096807;28;19967;-53
2023/07/15 06:11:50;;;;;;;;;;;21.30;59.50;;;;;;5096274;28;19931;-53
2023/07/15 06:14:17;;;;;;;;;;;21.30;59.40;;;;;;5096640;28;20349;-51
2023/07/15 06:16:44;;;;;;;;;;;21.30;59.70;;;;;;5096046;28;19986;-54
2023/07/15 06:19:11;;;;;;;;;;;21.20;60.50;;;;;;5095840;28;19966;-54
2023/07/15 06:21:40;;;;;;;;;;;21.20;60.00;;;;;;5096353;28;19924;-53
2023/07/15 06:24:07;;;;;;;;;;;21.20;60.50;;;;;;5096469;28;19964;-53
2023/07/15 06:26:34;;;;;;;;;;;21.10;60.90;;;;;;5095997;28;20001;-52
2023/07/15 06:29:01;;;;;;;;;;;21.10;61.30;;;;;;5096434;28;20376;-55
2023/07/15 06:31:28;;;;;;;;;;;21.10;61.70;;;;;;5096314;28;19924;-54
2023/07/15 06:33:56;;;;;;;;;;;21.10;61.10;;;;;;5095980;28;19932;-53
2023/07/15 06:36:23;;;;;;;;;;;21.10;61.50;;;;;;5095818;28;19977;-54
2023/07/15 06:38:50;;;;;;;;;;;21.10;62.00;;;;;;5096220;28;19924;-53
2023/07/15 06:41:17;;;;;;;;;;;21.20;61.80;;;;;;5096266;28;20026;-52
2023/07/15 06:43:44;;;;;;;;;;;21.10;61.90;;;;;;5096099;28;19977;-54
2023/07/15 06:46:11;;;;;;;;;;;21.20;62.30;;;;;;5095958;28;19924;-54
2023/07/15 06:48:38;;;;;;;;;;;21.20;62.60;;;;;;5095761;28;20014;-53
2023/07/15 06:51:05;;;;;;;;;;;21.30;62.20;;;;;;5096066;28;19990;-54
2023/07/15 06:53:32;;;;;;;;;;;21.30;62.40;;;;;;5095515;28;19924;-52
2023/07/15 06:56:00;;;;;;;;;;;21.30;62.20;;;;;;5095663;28;19970;-54
2023/07/15 06:58:46;;;;;;;;;;;21.30;62.30;;;;;;5095915;28;20008;-54
2023/07/15 07:01:13;;;;;;;;;;;21.30;61.90;;;;;;5093357;28;19931;-53
2023/07/15 07:03:40;;;;;;;;;;;21.40;62.00;;;;;;5078271;28;20011;-54
2023/07/15 07:06:07;;;;;;;;;;;21.40;62.30;;;;;;5080985;28;20019;-54
2023/07/15 07:08:35;;;;;;;;;;;21.40;62.00;;;;;;5075283;28;19935;-53
2023/07/15 07:11:02;;;;;;;;;;;21.40;62.20;;;;;;5087489;28;19924;-54
2023/07/15 07:13:29;;;;;;;;;;;21.40;61.90;;;;;;5080506;28;19924;-53
2023/07/15 07:15:57;;;;;;;;;;;21.40;62.10;;;;;;5095012;28;19924;-53
2023/07/15 07:18:25;;;;;;;;;;;21.40;61.90;;;;;;5095032;28;19924;-54
2023/07/15 07:20:59;;;;;;;;;;;21.40;62.10;;;;;;5094584;28;20304;-53
2023/07/15 07:23:26;;;;;;;;;;;21.40;62.40;;;;;;5093167;28;19946;-51
2023/07/15 07:25:53;;;;;;;;;;;21.40;62.20;;;;;;5087728;28;19924;-51
2023/07/15 07:28:23;;;;;;;;;;;21.50;62.20;;;;;;5094421;28;19925;-52
2023/07/15 07:30:50;;;;;;;;;;;21.50;62.00;;;;;;5081274;28;20059;-52
2023/07/15 07:33:19;;;;;;;;;;;21.60;61.60;;;;;;5074540;28;19924;-54
2023/07/15 07:35:46;;;;;;;;;;;21.60;62.00;;;;;;5074315;28;19928;-53
2023/07/15 07:38:13;;;;;;;;;;;21.50;61.70;;;;;;5090631;28;19925;-53
2023/07/15 07:40:44;;;;;;;;;;;21.50;61.60;;;;;;5095130;28;19970;-53
2023/07/15 07:43:11;;;;;;;;;;;21.50;61.90;;;;;;5094585;28;19924;-54
2023/07/15 07:45:38;;;;;;;;;;;21.50;62.20;;;;;;5090900;28;19924;-55
2023/07/15 07:48:05;;;;;;;;;;;21.50;61.80;;;;;;5090475;28;19971;-52
2023/07/15 07:50:33;;;;;;;;;;;21.60;61.90;;;;;;5094527;28;20381;-56
2023/07/15 07:53:00;;;;;;;;;;;21.60;61.80;;;;;;5094850;28;19924;-55
2023/07/15 07:55:27;;;;;;;;;;;21.50;61.80;;;;;;5094415;28;19924;-54
2023/07/15 07:57:54;;;;;;;;;;;21.50;62.00;;;;;;5094414;28;19928;-59
2023/07/15 08:00:21;;;;;;;;;;;21.60;61.60;;;;;;5094497;28;19928;-55
2023/07/15 08:02:48;;;;;;;;;;;21.60;61.90;;;;;;5094333;28;20268;-53
2023/07/15 08:05:15;;;;;;;;;;;21.60;62.20;;;;;;5088262;28;19928;-53
2023/07/15 08:07:42;;;;;;;;;;;21.60;62.30;;;;;;5087085;28;19924;-56
2023/07/15 08:10:09;;;;;;;;;;;21.60;62.10;;;;;;5094176;28;19978;-54
2023/07/15 08:12:36;;;;;;;;;;;21.60;61.90;;;;;;5074060;28;19939;-54
2023/07/15 08:15:03;;;;;;;;;;;21.60;62.00;;;;;;5073956;28;19924;-52
2023/07/15 08:17:34;;;;;;;;;;;21.60;62.30;;;;;;5074093;28;19970;-52
2023/07/15 08:20:02;;;;;;;;;;;21.70;62.90;;;;;;5076279;28;19976;-55
2023/07/15 08:22:29;;;;;;;;;;;21.70;61.90;;;;;;5094417;28;19970;-59
2023/07/15 08:24:56;;;;;;;;;;;21.70;62.00;;;;;;5094127;28;19924;-55
2023/07/15 08:27:23;;;;;;;;;;;21.70;62.40;;;;;;5093944;28;19924;-56
2023/07/15 08:29:50;;;;;;;;;;;21.80;62.30;;;;;;5093406;28;19931;-54
2023/07/15 08:32:17;;;;;;;;;;;21.80;61.90;;;;;;5092635;28;20285;-53
2023/07/15 08:34:58;;;;;;;;;;;21.80;62.10;;;;;;5093829;28;20018;-53
2023/07/15 08:37:26;;;;;;;;;;;21.80;62.40;;;;;;5093395;28;20369;-55
2023/07/15 08:39:53;;;;;;;;;;;21.80;62.00;;;;;;5093239;28;20335;-55
2023/07/15 08:42:20;;;;;;;;;;;21.80;62.40;;;;;;5089323;28;19990;-55
2023/07/15 08:44:48;;;;;;;;;;;21.80;61.70;;;;;;5083172;28;20365;-57
2023/07/15 08:47:22;;;;;;;;;;;21.90;61.90;;;;;;5087307;28;19973;-55
2023/07/15 08:49:50;;;;;;;;;;;21.90;61.60;;;;;;5093765;28;19924;-55
2023/07/15 08:52:17;;;;;;;;;;;21.90;61.40;;;;;;5093894;28;20011;-55
2023/07/15 08:54:49;;;;;;;;;;;21.90;61.50;;;;;;5092299;28;20434;-54
2023/07/15 08:57:20;;;;;;;;;;;21.90;61.50;;;;;;5073697;28;19974;-55
2023/07/15 08:59:47;;;;;;;;;;;21.90;61.30;;;;;;5073377;28;19928;-54
2023/07/15 09:02:14;;;;;;;;;;;21.90;61.10;;;;;;5073697;28;20435;-54
2023/07/15 09:04:42;;;;;;;;;;;21.90;61.00;;;;;;5073641;28;20292;-55
2023/07/15 09:07:09;;;;;;;;;;;21.90;61.80;;;;;;5073070;28;19931;-55
2023/07/15 09:09:37;;;;;;;;;;;21.80;61.20;;;;;;5073566;28;19928;-54
2023/07/15 09:12:05;;;;;;;;;;;21.80;61.30;;;;;;5073195;28;19924;-54
2023/07/15 09:14:37;;;;;;;;;;;21.80;61.00;;;;;;5073282;28;19978;-52
2023/07/15 09:17:17;;;;;;;;;;;21.80;61.50;;;;;;5072705;28;20023;-54
2023/07/15 09:19:45;;;;;;;;;;;21.80;61.60;;;;;;5074816;28;20408;-53
2023/07/15 09:22:12;;;;;;;;;;;21.80;61.50;;;;;;5079061;28;19924;-55
2023/07/15 09:24:39;;;;;;;;;;;21.80;61.40;;;;;;5078364;28;19928;-55
2023/07/15 09:27:07;;;;;;;;;;;21.80;61.20;;;;;;5093575;28;20330;-55
2023/07/15 09:29:35;;;;;;;;;;;21.80;61.40;;;;;;5090361;28;19924;-54
2023/07/15 09:32:02;;;;;;;;;;;21.80;61.40;;;;;;5075108;28;19931;-55
2023/07/15 09:34:29;;;;;;;;;;;21.80;61.40;;;;;;5072021;28;19928;-55
2023/07/15 09:36:56;;;;;;;;;;;21.80;61.30;;;;;;5073027;28;19928;-54
2023/07/15 09:39:23;;;;;;;;;;;21.80;61.40;;;;;;5072997;28;20339;-55
2023/07/15 09:42:01;;;;;;;;;;;21.90;61.50;;;;;;5073029;28;19932;-54
2023/07/15 09:44:39;;;;;;;;;;;21.90;61.00;;;;;;5075491;28;19970;-56
2023/07/15 09:47:06;;;;;;;;;;;21.80;61.40;;;;;;5075335;28;19928;-56
2023/07/15 09:49:33;;;;;;;;;;;21.90;61.30;;;;;;5076638;28;19931;-52
2023/07/15 09:52:02;;;;;;;;;;;21.90;61.40;;;;;;5076875;28;19932;-56
2023/07/15 09:54:30;;;;;;;;;;;21.90;61.50;;;;;;5076484;28;20377;-56
2023/07/15 09:57:03;;;;;;;;;;;21.90;61.60;;;;;;5076812;28;19924;-55
2023/07/15 09:59:33;;;;;;;;;;;21.90;61.00;;;;;;5076448;28;19954;-55
2023/07/15 10:02:05;;;;;;;;;;;21.90;60.60;;;;;;5076436;28;19924;-55
2023/07/15 10:04:34;;;;;;;;;;;21.90;60.60;;;;;;5076698;28;19951;-56
2023/07/15 10:07:04;;;;;;;;;;;21.90;60.40;;;;;;5074949;28;19925;-56
2023/07/15 10:09:31;;;;;;;;;;;21.80;60.20;;;;;;5076354;28;19978;-55
2023/07/15 10:11:59;;;;;;;;;;;21.80;60.00;;;;;;5076549;28;19932;-56
2023/07/15 10:14:28;;;;;;;;;;;21.80;60.20;;;;;;5075335;28;19928;-54
2023/07/15 10:17:12;;;;;;;;;;;21.70;59.90;;;;;;5075332;28;19933;-53
2023/07/15 10:19:40;;;;;;;;;;;21.70;59.50;;;;;;5076077;28;20385;-53
2023/07/15 10:22:08;;;;;;;;;;;21.60;59.20;;;;;;5076181;28;20007;-55
2023/07/15 10:24:35;;;;;;;;;;;21.60;59.50;;;;;;5076014;28;19978;-52
2023/07/15 10:27:10;;;;;;;;;;;21.50;59.00;;;;;;5076195;28;19960;-52
2023/07/15 10:29:38;;;;;;;;;;;21.50;59.30;;;;;;5075786;28;19971;-55
2023/07/15 10:32:12;;;;;;;;;;;21.50;59.90;;;;;;5075854;28;19972;-54
2023/07/15 10:34:50;;;;;;;;;;;21.40;59.80;;;;;;5076072;28;19928;-52
2023/07/15 10:37:17;;;;;;;;;;;21.40;60.20;;;;;;5075645;28;20389;-54
2023/07/15 10:39:45;;;;;;;;;;;21.50;60.40;;;;;;5076067;28;20296;-55
2023/07/15 10:42:13;;;;;;;;;;;21.50;60.50;;;;;;5075855;28;19970;-54
2023/07/15 10:44:45;;;;;;;;;;;21.50;60.60;;;;;;5075497;28;19925;-55
2023/07/15 10:47:16;;;;;;;;;;;21.50;60.90;;;;;;5089229;28;19924;-55
2023/07/15 10:49:43;;;;;;;;;;;21.50;61.00;;;;;;5095718;28;19924;-54
2023/07/15 10:52:10;;;;;;;;;;;21.60;61.00;;;;;;5096032;28;19924;-52
2023/07/15 10:54:39;;;;;;;;;;;21.70;61.00;;;;;;5094250;28;19924;-54
2023/07/15 10:57:07;;;;;;;;;;;21.70;61.50;;;;;;5095589;28;19958;-55
2023/07/15 10:59:35;;;;;;;;;;;21.70;61.10;;;;;;5095571;28;19977;-55
2023/07/15 11:02:02;;;;;;;;;;;21.80;61.10;;;;;;5095459;28;19970;-55
2023/07/15 11:04:30;;;;;;;;;;;21.80;60.90;;;;;;5095488;28;19924;-54
2023/07/15 11:07:00;;;;;;;;;;;21.80;60.90;;;;;;5095280;28;19971;-54
2023/07/15 11:09:27;;;;;;;;;;;21.80;61.00;;;;;;5095191;28;19924;-55
2023/07/15 11:11:54;;;;;;;;;;;21.80;60.90;;;;;;5095142;28;19924;-52
2023/07/15 11:14:26;;;;;;;;;;;21.90;60.60;;;;;;5095399;28;19928;-56
2023/07/15 11:16:54;;;;;;;;;;;21.90;60.80;;;;;;5095401;28;19926;-53
2023/07/15 11:19:23;;;;;;;;;;;21.90;61.50;;;;;;5095286;28;19924;-52
2023/07/15 11:21:52;;;;;;;;;;;21.90;61.00;;;;;;5094390;28;20205;-55
2023/07/15 11:24:20;;;;;;;;;;;21.90;60.90;;;;;;5095069;28;19954;-55
2023/07/15 11:26:47;;;;;;;;;;;21.90;60.60;;;;;;5095128;28;20351;-54
2023/07/15 11:29:16;;;;;;;;;;;21.90;60.80;;;;;;5095063;28;19979;-52
2023/07/15 11:31:51;;;;;;;;;;;22.00;61.10;;;;;;5094836;28;19954;-53
2023/07/15 11:34:19;;;;;;;;;;;22.00;61.50;;;;;;5095268;28;19924;-52
2023/07/15 11:36:46;;;;;;;;;;;22.00;60.60;;;;;;5094533;28;19924;-50
2023/07/15 11:39:14;;;;;;;;;;;22.00;60.50;;;;;;5095150;28;19928;-54
2023/07/15 11:41:41;;;;;;;;;;;22.00;60.50;;;;;;5094610;28;19963;-54
2023/07/15 11:44:12;;;;;;;;;;;22.00;60.40;;;;;;5095070;28;19924;-54
2023/07/15 11:46:40;;;;;;;;;;;22.00;60.00;;;;;;5094439;28;19977;-55
2023/07/15 11:49:07;;;;;;;;;;;22.00;60.50;;;;;;5094467;28;19986;-55
2023/07/15 11:51:35;;;;;;;;;;;22.00;60.60;;;;;;5094893;28;19959;-55
2023/07/15 11:54:08;;;;;;;;;;;22.00;60.30;;;;;;5094636;28;19950;-53
2023/07/15 11:56:36;;;;;;;;;;;21.90;60.20;;;;;;5094414;28;19924;-54
2023/07/15 11:59:05;;;;;;;;;;;21.90;59.80;;;;;;5093116;28;19928;-54
2023/07/15 12:01:32;;;;;;;;;;;21.90;60.00;;;;;;5093517;28;19931;-52
2023/07/15 12:03:59;;;;;;;;;;;21.90;60.30;;;;;;5094179;28;20015;-54
2023/07/15 12:06:27;;;;;;;;;;;21.80;59.70;;;;;;5093612;28;19928;-55
2023/07/15 12:09:05;;;;;;;;;;;21.80;59.80;;;;;;5094356;28;20388;-55
2023/07/15 12:11:32;;;;;;;;;;;21.80;59.70;;;;;;5093970;28;19924;-55
2023/07/15 12:14:00;;;;;;;;;;;21.80;59.60;;;;;;5094344;28;19970;-54
2023/07/15 12:16:28;;;;;;;;;;;21.70;59.80;;;;;;5094114;28;19980;-50
2023/07/15 12:18:56;;;;;;;;;;;21.70;59.50;;;;;;5093582;28;19924;-54
2023/07/15 12:21:23;;;;;;;;;;;21.70;59.40;;;;;;5093511;28;20372;-54
2023/07/15 12:23:53;;;;;;;;;;;21.70;59.40;;;;;;5094404;28;19924;-55
2023/07/15 12:26:20;;;;;;;;;;;21.70;59.60;;;;;;5093899;28;19950;-53
2023/07/15 12:28:47;;;;;;;;;;;21.70;59.90;;;;;;5093948;28;19928;-51
2023/07/15 12:31:14;;;;;;;;;;;21.60;59.70;;;;;;5093721;28;19981;-50
2023/07/15 12:33:42;;;;;;;;;;;21.60;59.40;;;;;;5093885;28;20044;-52
2023/07/15 12:36:10;;;;;;;;;;;21.60;59.70;;;;;;5094049;28;19924;-54
2023/07/15 12:38:37;;;;;;;;;;;21.60;59.70;;;;;;5093446;28;20334;-53
2023/07/15 12:41:05;;;;;;;;;;;21.60;59.50;;;;;;5094217;28;20010;-54
2023/07/15 12:43:32;;;;;;;;;;;21.50;59.70;;;;;;5094075;28;20011;-55
2023/07/15 12:46:00;;;;;;;;;;;21.50;59.50;;;;;;5093995;28;20038;-54
2023/07/15 12:48:27;;;;;;;;;;;21.60;59.20;;;;;;5093877;28;19950;-56
2023/07/15 12:50:54;;;;;;;;;;;21.50;60.00;;;;;;5093762;28;19972;-53
2023/07/15 12:53:21;;;;;;;;;;;21.50;59.30;;;;;;5093671;28;20351;-50
2023/07/15 12:55:49;;;;;;;;;;;21.60;59.80;;;;;;5093703;28;19970;-53
2023/07/15 12:58:16;;;;;;;;;;;21.60;59.50;;;;;;5093359;28;19974;-53
2023/07/15 13:00:43;;;;;;;;;;;21.60;59.50;;;;;;5093628;28;20330;-55
2023/07/15 13:03:10;;;;;;;;;;;21.50;59.50;;;;;;5093877;28;19969;-54
2023/07/15 13:05:37;;;;;;;;;;;21.50;59.20;;;;;;5093713;28;19971;-55
2023/07/15 13:08:04;;;;;;;;;;;21.50;59.90;;;;;;5093683;28;19989;-54
2023/07/15 13:10:31;;;;;;;;;;;21.50;59.40;;;;;;5093566;28;19928;-54
2023/07/15 13:12:59;;;;;;;;;;;21.50;59.80;;;;;;5093702;28;19993;-55
2023/07/15 13:15:25;;;;;;;;;;;21.50;59.40;;;;;;5093541;28;19924;-52
2023/07/15 13:17:53;;;;;;;;;;;21.60;59.20;;;;;;5095352;28;19924;-55
2023/07/15 13:20:20;;;;;;;;;;;21.60;59.20;;;;;;5097776;28;20026;-52
2023/07/15 13:22:47;;;;;;;;;;;21.60;60.00;;;;;;5097462;28;20037;-53
2023/07/15 13:25:14;;;;;;;;;;;21.60;59.80;;;;;;5097638;28;19924;-53
2023/07/15 13:27:41;;;;;;;;;;;21.60;59.80;;;;;;5076936;28;19924;-52
2023/07/15 13:30:08;;;;;;;;;;;21.60;59.70;;;;;;5077098;28;19968;-55
2023/07/15 13:32:35;;;;;;;;;;;21.60;59.30;;;;;;5077265;28;20292;-54
2023/07/15 13:35:02;;;;;;;;;;;21.70;59.20;;;;;;5077219;28;20387;-53
2023/07/15 13:37:29;;;;;;;;;;;21.70;59.90;;;;;;5076883;28;20387;-54
2023/07/15 13:39:56;;;;;;;;;;;21.70;59.60;;;;;;5077168;28;19925;-54
2023/07/15 13:42:23;;;;;;;;;;;21.70;59.70;;;;;;5077119;28;19971;-54
2023/07/15 13:44:50;;;;;;;;;;;21.70;59.80;;;;;;5077134;28;19993;-53
2023/07/15 13:47:17;;;;;;;;;;;21.70;59.60;;;;;;5076524;28;19928;-52
2023/07/15 13:49:45;;;;;;;;;;;21.70;59.90;;;;;;5076833;28;19972;-54
2023/07/15 13:52:12;;;;;;;;;;;21.70;60.10;;;;;;5076652;28;19978;-52
2023/07/15 13:54:38;;;;;;;;;;;21.70;60.40;;;;;;5076552;28;19931;-52
2023/07/15 13:57:06;;;;;;;;;;;21.70;59.90;;;;;;5076808;28;19925;-54
2023/07/15 13:59:33;;;;;;;;;;;21.80;60.20;;;;;;5076515;28;19974;-52
2023/07/15 14:02:00;;;;;;;;;;;21.80;60.40;;;;;;5076373;28;19972;-52
2023/07/15 14:04:26;;;;;;;;;;;21.80;63.60;;;;;;5076492;28;19950;-55
2023/07/15 14:06:54;;;;;;;;;;;22.00;66.50;;;;;;5076186;28;19951;-55
2023/07/15 14:09:20;;;;;;;;;;;22.30;68.40;;;;;;5076360;28;19971;-55
2023/07/15 14:11:47;;;;;;;;;;;22.60;69.30;;;;;;5076178;28;19975;-54
2023/07/15 14:14:15;;;;;;;;;;;22.90;68.90;;;;;;5076367;28;20451;-53
2023/07/15 14:16:42;;;;;;;;;;;23.20;68.60;;;;;;5075993;28;20381;-53
2023/07/15 14:19:09;;;;;;;;;;;23.40;68.30;;;;;;5076206;28;19924;-56
2023/07/15 14:21:36;;;;;;;;;;;23.70;68.20;;;;;;5076451;28;19924;-57